sensor_id;sensor_type;location;lat;lon;timestamp;P1;durP1;ratioP1;P2;durP2;ratioP2
35644;SDS011;21764;52.042;6.830;2022-09-12T00:04:37;31.50;;;22.13;;
35644;SDS011;21764;52.042;6.830;2022-09-12T00:09:37;34.10;;;24.02;;
35644;SDS011;21764;52.042;6.830;2022-09-12T00:14:38;34.88;;;23.75;;
35644;SDS011;21764;52.042;6.830;2022-09-12T00:19:39;35.30;;;24.35;;
35644;SDS011;21764;52.042;6.830;2022-09-12T00:24:39;35.50;;;24.13;;
35644;SDS011;21764;52.042;6.830;2022-09-12T00:29:40;35.03;;;24.38;;
35644;SDS011;21764;52.042;6.830;2022-09-12T00:34:40;35.95;;;24.65;;
35644;SDS011;21764;52.042;6.830;2022-09-12T00:39:41;32.63;;;24.30;;
35644;SDS011;21764;52.042;6.830;2022-09-12T00:44:43;38.03;;;25.50;;
35644;SDS011;21764;52.042;6.830;2022-09-12T00:49:47;39.78;;;26.48;;
35644;SDS011;21764;52.042;6.830;2022-09-12T00:55:19;38.35;;;26.00;;
35644;SDS011;21764;52.042;6.830;2022-09-12T01:00:24;39.37;;;25.90;;
35644;SDS011;21764;52.042;6.830;2022-09-12T01:05:26;38.72;;;26.83;;
35644;SDS011;21764;52.042;6.830;2022-09-12T01:10:29;45.10;;;28.42;;
35644;SDS011;21764;52.042;6.830;2022-09-12T01:15:30;38.05;;;26.77;;
35644;SDS011;21764;52.042;6.830;2022-09-12T01:25:50;45.42;;;27.98;;
35644;SDS011;21764;52.042;6.830;2022-09-12T01:36:31;40.63;;;26.60;;
35644;SDS011;21764;52.042;6.830;2022-09-12T02:02:58;46.42;;;29.27;;
35644;SDS011;21764;52.042;6.830;2022-09-12T02:08:12;43.53;;;29.13;;
35644;SDS011;21764;52.042;6.830;2022-09-12T02:13:18;47.83;;;31.27;;
35644;SDS011;21764;52.042;6.830;2022-09-12T02:18:24;47.40;;;30.58;;
35644;SDS011;21764;52.042;6.830;2022-09-12T02:23:28;42.40;;;27.37;;
35644;SDS011;21764;52.042;6.830;2022-09-12T02:28:35;51.75;;;31.45;;
35644;SDS011;21764;52.042;6.830;2022-09-12T02:33:47;59.78;;;33.85;;
35644;SDS011;21764;52.042;6.830;2022-09-12T02:38:56;54.63;;;33.13;;
35644;SDS011;21764;52.042;6.830;2022-09-12T02:43:57;50.97;;;32.55;;
35644;SDS011;21764;52.042;6.830;2022-09-12T02:48:58;50.40;;;30.75;;
35644;SDS011;21764;52.042;6.830;2022-09-12T02:53:59;57.63;;;32.22;;
35644;SDS011;21764;52.042;6.830;2022-09-12T02:59:03;51.92;;;30.92;;
35644;SDS011;21764;52.042;6.830;2022-09-12T03:25:45;55.92;;;32.85;;
35644;SDS011;21764;52.042;6.830;2022-09-12T03:30:52;59.10;;;34.58;;
35644;SDS011;21764;52.042;6.830;2022-09-12T03:35:53;60.97;;;33.63;;
35644;SDS011;21764;52.042;6.830;2022-09-12T03:40:54;61.58;;;33.90;;
35644;SDS011;21764;52.042;6.830;2022-09-12T03:45:55;56.15;;;32.25;;
35644;SDS011;21764;52.042;6.830;2022-09-12T03:51:03;57.85;;;33.20;;
35644;SDS011;21764;52.042;6.830;2022-09-12T03:56:09;52.00;;;32.67;;
35644;SDS011;21764;52.042;6.830;2022-09-12T04:01:13;58.53;;;32.60;;
35644;SDS011;21764;52.042;6.830;2022-09-12T04:06:19;58.30;;;33.03;;
35644;SDS011;21764;52.042;6.830;2022-09-12T04:11:21;57.28;;;32.10;;
35644;SDS011;21764;52.042;6.830;2022-09-12T04:16:22;64.03;;;35.47;;
35644;SDS011;21764;52.042;6.830;2022-09-12T04:21:23;63.30;;;35.80;;
35644;SDS011;21764;52.042;6.830;2022-09-12T04:26:24;63.38;;;34.80;;
35644;SDS011;21764;52.042;6.830;2022-09-12T04:31:24;67.50;;;34.75;;
35644;SDS011;21764;52.042;6.830;2022-09-12T04:36:26;63.40;;;37.13;;
35644;SDS011;21764;52.042;6.830;2022-09-12T04:41:29;67.53;;;35.25;;
35644;SDS011;21764;52.042;6.830;2022-09-12T04:46:33;65.97;;;35.78;;
35644;SDS011;21764;52.042;6.830;2022-09-12T04:51:36;65.53;;;36.33;;
35644;SDS011;21764;52.042;6.830;2022-09-12T04:56:40;60.47;;;34.75;;
35644;SDS011;21764;52.042;6.830;2022-09-12T05:01:41;65.32;;;34.88;;
35644;SDS011;21764;52.042;6.830;2022-09-12T05:06:42;58.95;;;34.50;;
35644;SDS011;21764;52.042;6.830;2022-09-12T05:11:43;62.25;;;35.17;;
35644;SDS011;21764;52.042;6.830;2022-09-12T05:16:44;64.70;;;33.97;;
35644;SDS011;21764;52.042;6.830;2022-09-12T05:21:45;58.42;;;33.40;;
35644;SDS011;21764;52.042;6.830;2022-09-12T05:26:45;56.55;;;33.50;;
35644;SDS011;21764;52.042;6.830;2022-09-12T05:31:46;54.03;;;31.95;;
35644;SDS011;21764;52.042;6.830;2022-09-12T05:36:51;50.45;;;29.77;;
35644;SDS011;21764;52.042;6.830;2022-09-12T05:41:51;45.42;;;28.63;;
35644;SDS011;21764;52.042;6.830;2022-09-12T05:46:52;45.33;;;28.88;;
35644;SDS011;21764;52.042;6.830;2022-09-12T05:51:52;40.38;;;26.58;;
35644;SDS011;21764;52.042;6.830;2022-09-12T05:56:53;40.15;;;26.65;;
35644;SDS011;21764;52.042;6.830;2022-09-12T06:01:54;39.28;;;24.45;;
35644;SDS011;21764;52.042;6.830;2022-09-12T06:06:54;35.33;;;24.75;;
35644;SDS011;21764;52.042;6.830;2022-09-12T06:11:56;36.55;;;23.95;;
35644;SDS011;21764;52.042;6.830;2022-09-12T06:16:56;39.53;;;25.67;;
35644;SDS011;21764;52.042;6.830;2022-09-12T06:22:00;37.58;;;26.10;;
35644;SDS011;21764;52.042;6.830;2022-09-12T06:27:01;41.97;;;26.65;;
35644;SDS011;21764;52.042;6.830;2022-09-12T06:32:02;41.97;;;26.98;;
35644;SDS011;21764;52.042;6.830;2022-09-12T06:37:03;37.95;;;24.38;;
35644;SDS011;21764;52.042;6.830;2022-09-12T06:42:03;50.17;;;28.73;;
35644;SDS011;21764;52.042;6.830;2022-09-12T06:47:04;42.83;;;28.05;;
35644;SDS011;21764;52.042;6.830;2022-09-12T06:52:05;47.15;;;27.88;;
35644;SDS011;21764;52.042;6.830;2022-09-12T06:57:06;47.20;;;27.15;;
35644;SDS011;21764;52.042;6.830;2022-09-12T07:02:07;48.67;;;28.75;;
35644;SDS011;21764;52.042;6.830;2022-09-12T07:07:08;52.22;;;30.02;;
35644;SDS011;21764;52.042;6.830;2022-09-12T07:12:10;45.75;;;27.10;;
35644;SDS011;21764;52.042;6.830;2022-09-12T07:17:11;48.05;;;27.92;;
35644;SDS011;21764;52.042;6.830;2022-09-12T07:22:12;42.35;;;25.95;;
35644;SDS011;21764;52.042;6.830;2022-09-12T07:27:13;46.45;;;27.15;;
35644;SDS011;21764;52.042;6.830;2022-09-12T07:32:13;40.90;;;26.48;;
35644;SDS011;21764;52.042;6.830;2022-09-12T07:37:14;43.70;;;25.13;;
35644;SDS011;21764;52.042;6.830;2022-09-12T07:42:15;45.08;;;24.67;;
35644;SDS011;21764;52.042;6.830;2022-09-12T07:47:18;43.42;;;25.95;;
35644;SDS011;21764;52.042;6.830;2022-09-12T07:52:21;40.25;;;24.88;;
35644;SDS011;21764;52.042;6.830;2022-09-12T07:57:22;43.47;;;24.10;;
35644;SDS011;21764;52.042;6.830;2022-09-12T08:02:26;39.85;;;24.77;;
35644;SDS011;21764;52.042;6.830;2022-09-12T08:07:26;38.95;;;22.75;;
35644;SDS011;21764;52.042;6.830;2022-09-12T08:12:27;37.00;;;21.83;;
35644;SDS011;21764;52.042;6.830;2022-09-12T08:17:29;37.40;;;23.02;;
35644;SDS011;21764;52.042;6.830;2022-09-12T08:22:30;34.80;;;22.23;;
35644;SDS011;21764;52.042;6.830;2022-09-12T08:27:31;33.97;;;21.13;;
35644;SDS011;21764;52.042;6.830;2022-09-12T08:32:33;34.72;;;19.85;;
35644;SDS011;21764;52.042;6.830;2022-09-12T08:37:33;27.77;;;19.17;;
35644;SDS011;21764;52.042;6.830;2022-09-12T08:42:56;30.33;;;19.17;;
35644;SDS011;21764;52.042;6.830;2022-09-12T08:47:55;24.95;;;18.17;;
35644;SDS011;21764;52.042;6.830;2022-09-12T08:58:24;22.23;;;16.83;;
35644;SDS011;21764;52.042;6.830;2022-09-12T09:19:37;25.70;;;15.55;;
35644;SDS011;21764;52.042;6.830;2022-09-12T09:24:52;20.33;;;15.07;;
35644;SDS011;21764;52.042;6.830;2022-09-12T09:29:58;26.08;;;15.27;;
35644;SDS011;21764;52.042;6.830;2022-09-12T09:35:23;21.00;;;15.38;;
35644;SDS011;21764;52.042;6.830;2022-09-12T09:40:44;20.13;;;16.08;;
35644;SDS011;21764;52.042;6.830;2022-09-12T09:45:52;24.88;;;15.82;;
35644;SDS011;21764;52.042;6.830;2022-09-12T09:50:55;18.75;;;15.25;;
35644;SDS011;21764;52.042;6.830;2022-09-12T09:56:00;22.80;;;15.88;;
35644;SDS011;21764;52.042;6.830;2022-09-12T10:01:14;24.48;;;15.50;;
35644;SDS011;21764;52.042;6.830;2022-09-12T10:11:29;21.30;;;14.95;;
35644;SDS011;21764;52.042;6.830;2022-09-12T10:16:46;21.15;;;14.25;;
35644;SDS011;21764;52.042;6.830;2022-09-12T10:21:53;19.58;;;12.20;;
35644;SDS011;21764;52.042;6.830;2022-09-12T10:32:26;16.02;;;10.05;;
35644;SDS011;21764;52.042;6.830;2022-09-12T10:37:59;17.80;;;10.93;;
35644;SDS011;21764;52.042;6.830;2022-09-12T10:43:14;13.88;;;9.80;;
35644;SDS011;21764;52.042;6.830;2022-09-12T10:48:37;21.35;;;10.07;;
35644;SDS011;21764;52.042;6.830;2022-09-12T10:53:41;16.25;;;9.70;;
35644;SDS011;21764;52.042;6.830;2022-09-12T10:58:54;12.60;;;8.23;;
35644;SDS011;21764;52.042;6.830;2022-09-12T11:15:02;18.05;;;7.82;;
35644;SDS011;21764;52.042;6.830;2022-09-12T11:26:20;10.15;;;6.80;;
35644;SDS011;21764;52.042;6.830;2022-09-12T11:36:53;10.02;;;6.35;;
35644;SDS011;21764;52.042;6.830;2022-09-12T11:42:20;11.73;;;6.85;;
35644;SDS011;21764;52.042;6.830;2022-09-12T11:47:32;9.98;;;5.50;;
35644;SDS011;21764;52.042;6.830;2022-09-12T11:52:35;15.73;;;6.80;;
35644;SDS011;21764;52.042;6.830;2022-09-12T11:57:57;8.07;;;5.17;;
35644;SDS011;21764;52.042;6.830;2022-09-12T12:03:06;6.63;;;3.80;;
35644;SDS011;21764;52.042;6.830;2022-09-12T12:08:12;7.70;;;4.68;;
35644;SDS011;21764;52.042;6.830;2022-09-12T12:13:17;7.05;;;4.90;;
35644;SDS011;21764;52.042;6.830;2022-09-12T12:18:27;8.10;;;4.87;;
35644;SDS011;21764;52.042;6.830;2022-09-12T12:23:32;6.85;;;4.40;;
35644;SDS011;21764;52.042;6.830;2022-09-12T12:44:49;10.00;;;6.10;;
35644;SDS011;21764;52.042;6.830;2022-09-12T12:49:54;9.95;;;5.50;;
35644;SDS011;21764;52.042;6.830;2022-09-12T12:55:11;8.02;;;5.40;;
35644;SDS011;21764;52.042;6.830;2022-09-12T13:05:26;6.75;;;4.47;;
35644;SDS011;21764;52.042;6.830;2022-09-12T13:10:28;7.93;;;4.63;;
35644;SDS011;21764;52.042;6.830;2022-09-12T13:20:50;15.00;;;6.43;;
35644;SDS011;21764;52.042;6.830;2022-09-12T13:26:20;10.10;;;5.95;;
35644;SDS011;21764;52.042;6.830;2022-09-12T13:31:24;13.10;;;5.50;;
35644;SDS011;21764;52.042;6.830;2022-09-12T13:47:31;10.18;;;6.20;;
35644;SDS011;21764;52.042;6.830;2022-09-12T13:52:35;11.10;;;5.43;;
35644;SDS011;21764;52.042;6.830;2022-09-12T13:57:38;11.07;;;4.53;;
35644;SDS011;21764;52.042;6.830;2022-09-12T14:02:42;11.88;;;5.28;;
35644;SDS011;21764;52.042;6.830;2022-09-12T14:07:56;16.65;;;5.65;;
35644;SDS011;21764;52.042;6.830;2022-09-12T14:13:09;9.88;;;5.65;;
35644;SDS011;21764;52.042;6.830;2022-09-12T14:18:20;8.77;;;5.07;;
35644;SDS011;21764;52.042;6.830;2022-09-12T14:28:29;11.50;;;5.32;;
35644;SDS011;21764;52.042;6.830;2022-09-12T14:38:58;7.22;;;4.72;;
35644;SDS011;21764;52.042;6.830;2022-09-12T14:44:02;11.57;;;4.68;;
35644;SDS011;21764;52.042;6.830;2022-09-12T14:59:30;12.07;;;5.00;;
35644;SDS011;21764;52.042;6.830;2022-09-12T15:04:39;6.97;;;4.00;;
35644;SDS011;21764;52.042;6.830;2022-09-12T15:09:41;7.07;;;3.90;;
35644;SDS011;21764;52.042;6.830;2022-09-12T15:14:42;5.10;;;3.65;;
35644;SDS011;21764;52.042;6.830;2022-09-12T15:19:43;8.20;;;3.45;;
35644;SDS011;21764;52.042;6.830;2022-09-12T15:24:43;6.55;;;3.80;;
35644;SDS011;21764;52.042;6.830;2022-09-12T15:29:44;6.75;;;3.70;;
35644;SDS011;21764;52.042;6.830;2022-09-12T15:34:46;8.48;;;4.45;;
35644;SDS011;21764;52.042;6.830;2022-09-12T15:39:47;7.53;;;3.28;;
35644;SDS011;21764;52.042;6.830;2022-09-12T15:44:48;3.53;;;2.97;;
35644;SDS011;21764;52.042;6.830;2022-09-12T15:49:49;4.25;;;2.90;;
35644;SDS011;21764;52.042;6.830;2022-09-12T15:54:50;13.35;;;3.53;;
35644;SDS011;21764;52.042;6.830;2022-09-12T15:59:50;5.28;;;3.03;;
35644;SDS011;21764;52.042;6.830;2022-09-12T16:04:52;4.30;;;3.15;;
35644;SDS011;21764;52.042;6.830;2022-09-12T16:09:54;5.07;;;3.35;;
35644;SDS011;21764;52.042;6.830;2022-09-12T16:14:54;4.57;;;2.88;;
35644;SDS011;21764;52.042;6.830;2022-09-12T16:19:56;6.68;;;2.88;;
35644;SDS011;21764;52.042;6.830;2022-09-12T16:24:57;13.73;;;3.25;;
35644;SDS011;21764;52.042;6.830;2022-09-12T16:29:58;10.82;;;3.05;;
35644;SDS011;21764;52.042;6.830;2022-09-12T16:34:59;8.38;;;3.10;;
35644;SDS011;21764;52.042;6.830;2022-09-12T16:40:01;4.25;;;2.85;;
35644;SDS011;21764;52.042;6.830;2022-09-12T16:45:05;4.18;;;2.88;;
35644;SDS011;21764;52.042;6.830;2022-09-12T16:50:06;5.10;;;2.88;;
35644;SDS011;21764;52.042;6.830;2022-09-12T16:55:07;6.50;;;4.40;;
35644;SDS011;21764;52.042;6.830;2022-09-12T17:00:09;2.63;;;2.38;;
35644;SDS011;21764;52.042;6.830;2022-09-12T17:05:10;12.15;;;3.85;;
35644;SDS011;21764;52.042;6.830;2022-09-12T17:10:11;4.10;;;2.40;;
35644;SDS011;21764;52.042;6.830;2022-09-12T17:15:11;4.55;;;2.83;;
35644;SDS011;21764;52.042;6.830;2022-09-12T17:20:12;7.97;;;2.90;;
35644;SDS011;21764;52.042;6.830;2022-09-12T17:25:15;7.82;;;2.90;;
35644;SDS011;21764;52.042;6.830;2022-09-12T17:30:16;6.95;;;3.45;;
35644;SDS011;21764;52.042;6.830;2022-09-12T17:35:17;5.40;;;3.47;;
35644;SDS011;21764;52.042;6.830;2022-09-12T17:40:18;12.07;;;4.88;;
35644;SDS011;21764;52.042;6.830;2022-09-12T17:45:18;4.47;;;3.45;;
35644;SDS011;21764;52.042;6.830;2022-09-12T17:50:19;6.10;;;3.72;;
35644;SDS011;21764;52.042;6.830;2022-09-12T17:55:20;10.10;;;3.72;;
35644;SDS011;21764;52.042;6.830;2022-09-12T18:00:20;10.80;;;4.05;;
35644;SDS011;21764;52.042;6.830;2022-09-12T18:05:45;6.80;;;3.80;;
35644;SDS011;21764;52.042;6.830;2022-09-12T18:10:51;5.85;;;4.05;;
35644;SDS011;21764;52.042;6.830;2022-09-12T18:15:52;7.18;;;3.97;;
35644;SDS011;21764;52.042;6.830;2022-09-12T18:20:53;11.10;;;4.20;;
35644;SDS011;21764;52.042;6.830;2022-09-12T18:25:57;6.70;;;4.35;;
35644;SDS011;21764;52.042;6.830;2022-09-12T18:30:59;7.63;;;3.95;;
35644;SDS011;21764;52.042;6.830;2022-09-12T18:36:03;11.45;;;4.95;;
35644;SDS011;21764;52.042;6.830;2022-09-12T18:41:12;7.88;;;4.40;;
35644;SDS011;21764;52.042;6.830;2022-09-12T18:46:16;8.10;;;3.83;;
35644;SDS011;21764;52.042;6.830;2022-09-12T18:51:19;8.80;;;4.95;;
35644;SDS011;21764;52.042;6.830;2022-09-12T18:56:22;7.63;;;4.40;;
35644;SDS011;21764;52.042;6.830;2022-09-12T19:01:25;11.20;;;5.63;;
35644;SDS011;21764;52.042;6.830;2022-09-12T19:06:28;6.93;;;4.45;;
35644;SDS011;21764;52.042;6.830;2022-09-12T19:11:33;7.22;;;4.35;;
35644;SDS011;21764;52.042;6.830;2022-09-12T19:16:38;11.63;;;4.95;;
35644;SDS011;21764;52.042;6.830;2022-09-12T19:21:39;7.22;;;5.50;;
35644;SDS011;21764;52.042;6.830;2022-09-12T19:26:41;13.27;;;5.20;;
35644;SDS011;21764;52.042;6.830;2022-09-12T19:31:42;7.45;;;4.80;;
35644;SDS011;21764;52.042;6.830;2022-09-12T19:36:43;13.48;;;5.40;;
35644;SDS011;21764;52.042;6.830;2022-09-12T19:41:44;16.05;;;5.43;;
35644;SDS011;21764;52.042;6.830;2022-09-12T19:46:44;12.65;;;6.07;;
35644;SDS011;21764;52.042;6.830;2022-09-12T19:51:45;6.05;;;5.00;;
35644;SDS011;21764;52.042;6.830;2022-09-12T19:56:46;8.25;;;5.35;;
35644;SDS011;21764;52.042;6.830;2022-09-12T20:01:46;8.55;;;5.50;;
35644;SDS011;21764;52.042;6.830;2022-09-12T20:06:47;8.85;;;6.00;;
35644;SDS011;21764;52.042;6.830;2022-09-12T20:11:48;15.00;;;6.95;;
35644;SDS011;21764;52.042;6.830;2022-09-12T20:16:48;8.15;;;6.15;;
35644;SDS011;21764;52.042;6.830;2022-09-12T20:21:49;9.60;;;6.57;;
35644;SDS011;21764;52.042;6.830;2022-09-12T20:26:51;8.55;;;7.18;;
35644;SDS011;21764;52.042;6.830;2022-09-12T20:31:53;10.30;;;6.68;;
35644;SDS011;21764;52.042;6.830;2022-09-12T20:36:54;11.00;;;7.03;;
35644;SDS011;21764;52.042;6.830;2022-09-12T20:41:54;13.45;;;6.97;;
35644;SDS011;21764;52.042;6.830;2022-09-12T20:46:55;11.90;;;7.50;;
35644;SDS011;21764;52.042;6.830;2022-09-12T20:51:56;16.00;;;8.20;;
35644;SDS011;21764;52.042;6.830;2022-09-12T20:56:57;10.63;;;7.18;;
35644;SDS011;21764;52.042;6.830;2022-09-12T21:01:57;13.05;;;7.07;;
35644;SDS011;21764;52.042;6.830;2022-09-12T21:06:58;10.85;;;7.50;;
35644;SDS011;21764;52.042;6.830;2022-09-12T21:11:59;9.55;;;7.28;;
35644;SDS011;21764;52.042;6.830;2022-09-12T21:16:59;8.52;;;7.13;;
35644;SDS011;21764;52.042;6.830;2022-09-12T21:22:00;9.20;;;7.70;;
35644;SDS011;21764;52.042;6.830;2022-09-12T21:27:01;9.93;;;7.50;;
35644;SDS011;21764;52.042;6.830;2022-09-12T21:32:01;11.45;;;7.90;;
35644;SDS011;21764;52.042;6.830;2022-09-12T21:37:02;9.15;;;8.10;;
35644;SDS011;21764;52.042;6.830;2022-09-12T21:42:02;11.13;;;8.80;;
35644;SDS011;21764;52.042;6.830;2022-09-12T21:47:03;15.40;;;8.43;;
35644;SDS011;21764;52.042;6.830;2022-09-12T21:52:04;11.30;;;8.65;;
35644;SDS011;21764;52.042;6.830;2022-09-12T21:57:05;11.65;;;8.63;;
35644;SDS011;21764;52.042;6.830;2022-09-12T22:02:06;13.15;;;8.85;;
35644;SDS011;21764;52.042;6.830;2022-09-12T22:07:27;15.63;;;8.65;;
35644;SDS011;21764;52.042;6.830;2022-09-12T22:12:28;14.23;;;8.95;;
35644;SDS011;21764;52.042;6.830;2022-09-12T22:17:30;11.93;;;8.98;;
35644;SDS011;21764;52.042;6.830;2022-09-12T22:22:32;19.88;;;9.00;;
35644;SDS011;21764;52.042;6.830;2022-09-12T22:27:53;16.77;;;10.43;;
35644;SDS011;21764;52.042;6.830;2022-09-12T22:32:54;13.57;;;9.73;;
35644;SDS011;21764;52.042;6.830;2022-09-12T22:37:54;14.30;;;10.25;;
35644;SDS011;21764;52.042;6.830;2022-09-12T22:42:55;14.75;;;9.43;;
35644;SDS011;21764;52.042;6.830;2022-09-12T22:47:56;11.32;;;9.23;;
35644;SDS011;21764;52.042;6.830;2022-09-12T22:52:57;14.23;;;9.00;;
35644;SDS011;21764;52.042;6.830;2022-09-12T22:57:59;10.57;;;9.10;;
35644;SDS011;21764;52.042;6.830;2022-09-12T23:03:00;10.68;;;8.98;;
35644;SDS011;21764;52.042;6.830;2022-09-12T23:08:01;13.85;;;8.95;;
35644;SDS011;21764;52.042;6.830;2022-09-12T23:13:01;13.05;;;8.98;;
35644;SDS011;21764;52.042;6.830;2022-09-12T23:18:03;12.30;;;9.35;;
35644;SDS011;21764;52.042;6.830;2022-09-12T23:23:04;11.70;;;9.18;;
35644;SDS011;21764;52.042;6.830;2022-09-12T23:28:04;14.38;;;10.55;;
35644;SDS011;21764;52.042;6.830;2022-09-12T23:33:05;17.55;;;10.65;;
35644;SDS011;21764;52.042;6.830;2022-09-12T23:38:05;17.95;;;11.13;;
35644;SDS011;21764;52.042;6.830;2022-09-12T23:43:06;17.30;;;10.48;;
35644;SDS011;21764;52.042;6.830;2022-09-12T23:48:07;14.82;;;10.27;;
35644;SDS011;21764;52.042;6.830;2022-09-12T23:53:08;14.50;;;10.13;;
35644;SDS011;21764;52.042;6.830;2022-09-12T23:58:08;20.20;;;10.73;;
